createdAt,value
2018-05-29T00:02:08.037Z,20.32
2018-05-29T00:04:36.431Z,20.25
2018-05-29T00:07:04.853Z,20.19
2018-05-29T00:09:33.242Z,20.11
2018-05-29T00:12:01.723Z,20.02
2018-05-29T00:14:30.113Z,19.95
2018-05-29T00:16:58.525Z,19.90
2018-05-29T00:19:26.928Z,19.88
2018-05-29T00:21:55.322Z,19.86
2018-05-29T00:24:24.473Z,19.85
2018-05-29T00:26:52.859Z,19.79
2018-05-29T00:29:21.238Z,19.76
2018-05-29T00:31:50.374Z,19.76
2018-05-29T00:34:18.757Z,19.76
2018-05-29T00:36:47.166Z,19.76
2018-05-29T00:39:16.310Z,19.64
2018-05-29T00:41:44.886Z,19.59
2018-05-29T00:44:13.280Z,19.55
2018-05-29T00:46:41.665Z,19.48
2018-05-29T00:49:10.867Z,19.46
2018-05-29T00:51:40.030Z,19.44
2018-05-29T00:54:08.479Z,19.40
2018-05-29T00:56:36.907Z,19.42
2018-05-29T00:59:05.290Z,19.35
2018-05-29T01:01:33.704Z,19.31
2018-05-29T01:04:02.084Z,19.31
2018-05-29T01:06:30.477Z,19.25
2018-05-29T01:08:58.854Z,19.22
2018-05-29T01:11:27.279Z,19.18
2018-05-29T01:13:56.436Z,19.14
2018-05-29T01:16:24.841Z,19.09
2018-05-29T01:18:53.265Z,19.05
2018-05-29T01:21:21.658Z,19.01
2018-05-29T01:23:50.091Z,19.04
2018-05-29T01:26:18.505Z,19.14
2018-05-29T01:28:47.694Z,19.10
2018-05-29T01:31:16.118Z,18.98
2018-05-29T01:33:44.505Z,18.90
2018-05-29T01:36:12.957Z,18.82
2018-05-29T01:38:42.143Z,18.75
2018-05-29T01:41:10.557Z,18.68
2018-05-29T01:43:38.956Z,18.62
2018-05-29T01:46:07.467Z,18.55
2018-05-29T01:48:35.857Z,18.55
2018-05-29T01:51:04.241Z,18.53
2018-05-29T01:53:32.623Z,18.55
2018-05-29T01:56:01.841Z,18.61
2018-05-29T01:58:30.276Z,18.58
2018-05-29T02:00:58.692Z,18.52
2018-05-29T02:03:27.074Z,18.48
2018-05-29T02:05:55.482Z,18.52
2018-05-29T02:08:23.884Z,18.50
2018-05-29T02:10:53.037Z,18.48
2018-05-29T02:13:21.442Z,18.44
2018-05-29T02:15:49.838Z,18.41
2018-05-29T02:18:18.222Z,18.35
2018-05-29T02:20:46.640Z,18.33
2018-05-29T02:23:15.083Z,18.28
2018-05-29T02:25:43.479Z,18.22
2018-05-29T02:28:12.617Z,18.19
2018-05-29T02:30:41.024Z,18.19
2018-05-29T02:33:09.425Z,18.19
2018-05-29T02:35:37.898Z,18.18
2018-05-29T02:38:06.279Z,18.12
2018-05-29T02:40:34.666Z,18.08
2018-05-29T02:43:03.046Z,18.03
2018-05-29T02:45:31.491Z,18.09
2018-05-29T02:47:59.898Z,18.10
2018-05-29T02:50:28.277Z,18.10
2018-05-29T02:52:56.659Z,18.17
2018-05-29T02:55:25.052Z,18.15
2018-05-29T02:57:53.439Z,18.09
2018-05-29T03:00:22.594Z,18.02
2018-05-29T03:02:51.750Z,17.94
2018-05-29T03:05:20.175Z,17.90
2018-05-29T03:07:49.321Z,17.84
2018-05-29T03:10:17.757Z,17.79
2018-05-29T03:12:46.934Z,17.74
2018-05-29T03:15:15.328Z,17.71
2018-05-29T03:17:43.734Z,17.68
2018-05-29T03:20:12.900Z,17.64
2018-05-29T03:22:41.294Z,17.63
2018-05-29T03:25:09.691Z,17.62
2018-05-29T03:27:38.847Z,17.61
2018-05-29T03:30:08.037Z,17.60
2018-05-29T03:32:36.434Z,17.61
2018-05-29T03:35:04.810Z,17.58
2018-05-29T03:37:33.201Z,17.58
2018-05-29T03:40:01.590Z,17.57
2018-05-29T03:42:30.782Z,17.58
2018-05-29T03:44:59.189Z,17.56
2018-05-29T03:47:27.571Z,17.54
2018-05-29T03:49:55.961Z,17.53
2018-05-29T03:52:24.350Z,17.55
2018-05-29T03:54:52.744Z,17.63
2018-05-29T03:57:21.919Z,17.66
2018-05-29T03:59:50.329Z,17.72
2018-05-29T04:02:19.480Z,17.78
2018-05-29T04:04:47.878Z,17.82
2018-05-29T04:07:16.272Z,17.84
2018-05-29T04:09:44.690Z,17.84
2018-05-29T04:12:13.855Z,17.85
2018-05-29T04:14:42.339Z,17.89
2018-05-29T04:17:10.740Z,17.99
2018-05-29T04:19:39.113Z,18.17
2018-05-29T04:22:07.505Z,18.51
2018-05-29T04:24:35.911Z,18.76
2018-05-29T04:27:05.090Z,18.78
2018-05-29T04:29:33.497Z,18.79
2018-05-29T04:32:02.024Z,18.84
2018-05-29T04:34:30.429Z,19.08
2018-05-29T04:36:58.859Z,19.23
2018-05-29T04:39:27.291Z,19.21
2018-05-29T04:41:55.666Z,19.24
2018-05-29T04:44:24.069Z,19.35
2018-05-29T04:46:52.522Z,19.52
2018-05-29T04:49:20.918Z,19.64
2018-05-29T04:51:49.367Z,19.63
2018-05-29T04:54:17.858Z,19.71
2018-05-29T04:56:46.253Z,19.87
2018-05-29T04:59:14.644Z,19.93
2018-05-29T05:01:43.862Z,20.02
2018-05-29T05:04:12.323Z,20.03
2018-05-29T05:06:40.717Z,19.92
2018-05-29T05:09:09.407Z,19.95
2018-05-29T05:11:37.806Z,20.07
2018-05-29T05:14:06.229Z,20.02
2018-05-29T05:16:35.385Z,20.06
2018-05-29T05:19:03.788Z,20.23
2018-05-29T05:21:32.190Z,20.28
2018-05-29T05:24:01.387Z,20.43
2018-05-29T05:26:29.775Z,20.65
2018-05-29T05:28:58.922Z,20.83
2018-05-29T05:31:27.310Z,21.00
2018-05-29T05:33:55.721Z,21.21
2018-05-29T05:36:24.305Z,21.33
2018-05-29T05:38:52.674Z,21.52
2018-05-29T05:41:21.079Z,21.75
2018-05-29T05:43:50.293Z,21.94
2018-05-29T05:46:19.637Z,22.29
2018-05-29T05:48:48.109Z,22.51
2018-05-29T05:51:16.731Z,22.74
2018-05-29T05:53:45.187Z,22.92
2018-05-29T05:56:13.657Z,22.87
2018-05-29T05:58:42.808Z,22.92
2018-05-29T06:01:11.243Z,22.97
2018-05-29T06:03:40.388Z,23.07
2018-05-29T06:06:08.805Z,23.18
2018-05-29T06:08:37.163Z,23.35
2018-05-29T06:11:05.547Z,23.42
2018-05-29T06:13:33.986Z,23.53
2018-05-29T06:16:02.432Z,23.62
2018-05-29T06:18:30.790Z,23.73
2018-05-29T06:20:59.222Z,23.46
2018-05-29T06:23:28.400Z,23.75
2018-05-29T06:25:56.784Z,23.94
2018-05-29T06:28:25.226Z,24.03
2018-05-29T06:30:53.674Z,24.11
2018-05-29T06:33:22.861Z,24.42
2018-05-29T06:35:51.341Z,24.37
2018-05-29T06:38:19.845Z,24.46
2018-05-29T06:40:49.034Z,24.79
2018-05-29T06:43:17.444Z,24.77
2018-05-29T06:45:45.919Z,24.90
2018-05-29T06:48:15.080Z,25.24
2018-05-29T06:50:43.485Z,25.60
2018-05-29T06:53:11.884Z,25.78
2018-05-29T06:55:41.076Z,26.09
2018-05-29T06:58:09.471Z,26.42
2018-05-29T07:00:37.976Z,26.48
2018-05-29T07:03:06.370Z,26.77
2018-05-29T07:05:34.765Z,27.34
2018-05-29T07:08:03.205Z,27.63
2018-05-29T07:10:32.365Z,27.99
2018-05-29T07:13:00.770Z,28.25
2018-05-29T07:15:29.153Z,28.75
2018-05-29T07:17:57.591Z,29.31
2018-05-29T07:20:26.066Z,29.98
2018-05-29T07:22:54.485Z,30.41
2018-05-29T07:25:22.879Z,31.16
2018-05-29T07:27:51.301Z,31.56
2018-05-29T07:30:20.458Z,32.94
2018-05-29T07:32:48.839Z,32.73
2018-05-29T07:35:17.224Z,34.13
2018-05-29T07:37:45.613Z,33.45
2018-05-29T07:40:14.130Z,34.82
2018-05-29T07:42:43.332Z,34.53
2018-05-29T07:45:12.535Z,34.11
2018-05-29T07:47:41.715Z,33.82
2018-05-29T07:50:10.262Z,34.68
2018-05-29T07:52:38.643Z,35.69
2018-05-29T07:55:07.024Z,35.43
2018-05-29T07:57:35.449Z,35.30
2018-05-29T08:00:03.852Z,36.40
2018-05-29T08:02:33.053Z,36.09
2018-05-29T08:05:01.443Z,35.42
2018-05-29T08:07:30.639Z,36.39
2018-05-29T08:09:59.773Z,35.69
2018-05-29T08:12:28.162Z,35.31
2018-05-29T08:14:56.544Z,35.73
2018-05-29T08:17:24.962Z,35.65
2018-05-29T08:19:54.129Z,35.48
2018-05-29T08:22:22.583Z,35.24
2018-05-29T08:24:51.758Z,36.08
2018-05-29T08:27:20.241Z,36.29
2018-05-29T08:29:48.658Z,36.26
2018-05-29T08:32:17.818Z,36.02
2018-05-29T08:34:46.258Z,36.21
2018-05-29T08:37:14.646Z,35.62
2018-05-29T08:39:43.113Z,35.52
2018-05-29T08:42:11.461Z,35.82
2018-05-29T08:44:39.957Z,36.48
2018-05-29T08:47:08.344Z,36.56
2018-05-29T08:49:36.737Z,36.90
2018-05-29T08:52:05.925Z,37.02
2018-05-29T08:54:34.348Z,36.97
2018-05-29T08:57:02.764Z,36.36
2018-05-29T08:59:31.158Z,36.05
2018-05-29T09:01:59.671Z,37.17
2018-05-29T09:04:28.829Z,36.47
2018-05-29T09:06:57.257Z,36.00
2018-05-29T09:09:25.636Z,36.98
2018-05-29T09:11:54.845Z,37.16
2018-05-29T09:14:23.238Z,37.64
2018-05-29T09:16:52.434Z,37.87
2018-05-29T09:19:21.600Z,37.79
2018-05-29T09:21:49.985Z,37.12
2018-05-29T09:24:18.385Z,37.94
2018-05-29T09:26:46.780Z,36.04
2018-05-29T09:29:15.973Z,36.28
2018-05-29T09:31:44.400Z,35.86
2018-05-29T09:34:12.786Z,35.63
2018-05-29T09:36:41.177Z,35.45
2018-05-29T09:39:09.548Z,35.66
2018-05-29T09:41:37.963Z,36.25
2018-05-29T09:44:06.369Z,35.59
2018-05-29T09:46:34.758Z,35.99
2018-05-29T09:49:03.258Z,36.15
2018-05-29T09:51:32.424Z,36.29
2018-05-29T09:54:00.819Z,35.21
2018-05-29T09:56:29.309Z,34.25
2018-05-29T09:58:57.752Z,33.56
2018-05-29T10:01:26.154Z,34.16
2018-05-29T10:03:54.541Z,33.70
2018-05-29T10:06:22.965Z,33.42
2018-05-29T10:08:52.150Z,33.32
2018-05-29T10:11:20.596Z,32.62
2018-05-29T10:13:48.965Z,32.29
2018-05-29T10:16:17.458Z,31.96
2018-05-29T10:18:45.841Z,32.15
2018-05-29T10:21:14.243Z,32.49
2018-05-29T10:23:42.643Z,33.02
2018-05-29T10:26:11.034Z,32.83
2018-05-29T10:28:39.455Z,33.38
2018-05-29T10:31:07.861Z,33.67
2018-05-29T10:33:36.252Z,33.90
2018-05-29T10:36:05.403Z,35.47
2018-05-29T10:38:34.593Z,35.78
2018-05-29T10:41:03.014Z,35.93
2018-05-29T10:43:32.035Z,36.03
2018-05-29T10:46:00.497Z,36.82
2018-05-29T10:48:28.839Z,37.06
2018-05-29T10:50:57.267Z,36.71
2018-05-29T10:53:25.647Z,37.49
2018-05-29T10:55:54.027Z,37.90
2018-05-29T10:58:22.413Z,37.59
2018-05-29T11:00:50.811Z,37.63
2018-05-29T11:03:19.230Z,36.70
2018-05-29T11:05:47.612Z,35.93
2018-05-29T11:08:16.019Z,37.12
2018-05-29T11:10:45.311Z,36.06
2018-05-29T11:13:14.492Z,36.52
2018-05-29T11:15:42.945Z,35.00
2018-05-29T11:18:11.377Z,34.92
2018-05-29T11:20:39.827Z,34.52
2018-05-29T11:23:08.224Z,35.02
2018-05-29T11:25:36.709Z,34.04
2018-05-29T11:28:05.114Z,34.87
2018-05-29T11:30:33.543Z,34.48
2018-05-29T11:33:01.989Z,35.05
2018-05-29T11:35:31.167Z,35.05
2018-05-29T11:37:59.606Z,35.72
2018-05-29T11:40:27.997Z,35.33
2018-05-29T11:42:56.423Z,36.44
2018-05-29T11:45:24.818Z,37.69
2018-05-29T11:47:53.241Z,37.25
2018-05-29T11:50:21.638Z,35.89
2018-05-29T11:52:50.095Z,36.84
2018-05-29T11:55:19.276Z,36.67
2018-05-29T11:57:47.685Z,37.18
2018-05-29T12:00:16.082Z,36.44
2018-05-29T12:02:44.465Z,37.60
2018-05-29T12:05:12.850Z,37.57
2018-05-29T12:07:41.285Z,37.95
2018-05-29T12:10:09.696Z,36.51
2018-05-29T12:12:38.866Z,36.62
2018-05-29T12:15:07.274Z,37.80
2018-05-29T12:17:36.580Z,38.57
2018-05-29T12:20:05.725Z,37.65
2018-05-29T12:22:34.142Z,36.61
2018-05-29T12:25:02.549Z,36.99
2018-05-29T12:27:31.708Z,36.13
2018-05-29T12:30:00.132Z,36.88
2018-05-29T12:32:29.305Z,37.03
2018-05-29T12:34:57.688Z,36.31
2018-05-29T12:37:26.132Z,37.44
2018-05-29T12:39:54.570Z,37.45
2018-05-29T12:42:22.966Z,36.74
2018-05-29T12:44:52.139Z,34.78
2018-05-29T12:47:20.586Z,35.73
2018-05-29T12:49:48.981Z,35.31
2018-05-29T12:52:17.526Z,34.52
2018-05-29T12:54:46.665Z,33.99
2018-05-29T12:57:15.043Z,34.54
2018-05-29T12:59:43.442Z,35.00
2018-05-29T13:02:11.847Z,36.84
2018-05-29T13:04:40.250Z,37.00
2018-05-29T13:07:09.520Z,36.64
2018-05-29T13:09:37.914Z,36.39
2018-05-29T13:12:06.307Z,35.77
2018-05-29T13:14:34.714Z,35.21
2018-05-29T13:17:03.861Z,34.19
2018-05-29T13:19:32.381Z,33.96
2018-05-29T13:22:00.886Z,32.75
2018-05-29T13:24:30.119Z,32.08
2018-05-29T13:26:58.605Z,32.72
2018-05-29T13:29:26.987Z,32.96
2018-05-29T13:31:55.409Z,32.21
2018-05-29T13:34:23.799Z,32.04
2018-05-29T13:36:52.333Z,31.86
2018-05-29T13:39:20.757Z,31.74
2018-05-29T13:41:49.156Z,31.71
2018-05-29T13:44:17.527Z,31.47
2018-05-29T13:46:46.007Z,30.94
2018-05-29T13:49:15.464Z,31.01
2018-05-29T13:51:43.844Z,30.90
2018-05-29T13:54:13.167Z,30.53
2018-05-29T13:56:41.576Z,29.65
2018-05-29T13:59:10.009Z,28.64
2018-05-29T14:01:39.201Z,28.18
2018-05-29T14:04:07.606Z,27.66
2018-05-29T14:06:35.994Z,26.56
2018-05-29T14:09:04.451Z,26.37
2018-05-29T14:11:32.888Z,25.81
2018-05-29T14:14:01.258Z,25.57
2018-05-29T14:16:29.781Z,25.30
2018-05-29T14:18:58.229Z,25.27
2018-05-29T14:21:26.707Z,25.00
2018-05-29T14:23:55.149Z,25.03
2018-05-29T14:26:23.556Z,24.17
2018-05-29T14:28:52.727Z,23.39
2018-05-29T14:31:21.142Z,22.64
2018-05-29T14:33:50.337Z,21.51
2018-05-29T14:36:18.729Z,20.27
2018-05-29T14:38:47.883Z,19.93
2018-05-29T14:41:16.294Z,19.77
2018-05-29T14:43:44.793Z,19.83
2018-05-29T14:46:13.982Z,19.95
2018-05-29T14:48:42.418Z,20.06
2018-05-29T14:51:10.867Z,20.17
2018-05-29T14:53:40.025Z,20.18
2018-05-29T14:56:08.457Z,20.05
2018-05-29T14:58:37.666Z,20.01
2018-05-29T15:01:06.072Z,19.90
2018-05-29T15:03:34.471Z,19.89
2018-05-29T15:06:02.934Z,19.86
2018-05-29T15:08:32.143Z,19.82
2018-05-29T15:11:00.608Z,19.94
2018-05-29T15:13:29.797Z,19.93
2018-05-29T15:15:58.273Z,19.93
2018-05-29T15:18:27.511Z,19.94
2018-05-29T15:20:56.677Z,20.05
2018-05-29T15:23:25.095Z,20.16
2018-05-29T15:25:53.510Z,20.20
2018-05-29T15:28:22.041Z,20.34
2018-05-29T15:30:51.230Z,20.37
2018-05-29T15:33:19.662Z,20.46
2018-05-29T15:35:48.769Z,20.52
2018-05-29T15:38:17.228Z,20.63
2018-05-29T15:40:45.684Z,20.72
2018-05-29T15:43:14.058Z,20.74
2018-05-29T15:45:42.483Z,20.67
2018-05-29T15:48:10.886Z,20.70
2018-05-29T15:50:39.294Z,20.89
2018-05-29T15:53:07.726Z,21.11
2018-05-29T15:55:36.106Z,21.24
2018-05-29T15:58:05.321Z,21.38
2018-05-29T16:00:33.709Z,21.41
2018-05-29T16:03:02.124Z,21.19
2018-05-29T16:05:30.512Z,21.20
2018-05-29T16:07:58.938Z,21.12
2018-05-29T16:10:28.119Z,21.18
2018-05-29T16:12:56.571Z,21.30
2018-05-29T16:15:25.004Z,21.33
2018-05-29T16:17:54.185Z,21.13
2018-05-29T16:20:22.695Z,21.03
2018-05-29T16:22:51.845Z,20.95
2018-05-29T16:25:20.277Z,20.96
2018-05-29T16:30:24.059Z,20.90
2018-05-29T16:32:52.481Z,20.85
2018-05-29T16:35:21.635Z,20.79
2018-05-29T16:37:50.022Z,20.78
2018-05-29T16:40:18.489Z,20.78
2018-05-29T16:42:46.890Z,20.75
2018-05-29T16:45:16.040Z,20.66
2018-05-29T16:47:45.236Z,20.77
2018-05-29T16:50:14.452Z,20.71
2018-05-29T16:52:43.608Z,20.72
2018-05-29T16:55:12.012Z,20.78
2018-05-29T16:57:40.391Z,20.67
2018-05-29T17:00:08.812Z,20.74
2018-05-29T17:02:37.231Z,20.72
2018-05-29T17:05:05.631Z,20.71
2018-05-29T17:07:34.131Z,20.72
2018-05-29T17:10:02.570Z,20.85
2018-05-29T17:12:31.008Z,20.96
2018-05-29T17:15:00.170Z,21.06
2018-05-29T17:17:28.567Z,21.11
2018-05-29T17:19:56.967Z,20.98
2018-05-29T17:22:25.370Z,20.92
2018-05-29T17:24:54.684Z,20.94
2018-05-29T17:27:23.069Z,21.06
2018-05-29T17:29:52.261Z,21.16
2018-05-29T17:32:21.454Z,21.27
2018-05-29T17:34:50.646Z,21.34
2018-05-29T17:37:19.026Z,21.51
2018-05-29T17:39:47.459Z,21.29
2018-05-29T17:42:16.046Z,21.30
2018-05-29T17:44:44.484Z,21.33
2018-05-29T17:47:13.682Z,21.36
2018-05-29T17:49:42.164Z,21.45
2018-05-29T17:52:10.693Z,21.37
2018-05-29T17:54:39.106Z,21.27
2018-05-29T17:57:07.608Z,21.37
2018-05-29T17:59:36.323Z,21.35
2018-05-29T18:02:05.538Z,21.35
2018-05-29T18:04:34.736Z,21.30
2018-05-29T18:07:03.973Z,21.46
2018-05-29T18:09:32.632Z,21.35
2018-05-29T18:12:01.074Z,21.33
2018-05-29T18:14:29.481Z,21.36
2018-05-29T18:16:58.148Z,21.45
2018-05-29T18:19:26.765Z,21.57
2018-05-29T18:21:55.189Z,21.49
2018-05-29T18:24:23.776Z,21.33
2018-05-29T18:26:52.226Z,21.35
2018-05-29T18:29:21.523Z,21.30
2018-05-29T18:31:50.754Z,21.17
2018-05-29T18:34:19.257Z,21.07
2018-05-29T18:36:47.823Z,20.98
2018-05-29T18:39:16.989Z,21.03
2018-05-29T18:41:45.441Z,20.99
2018-05-29T18:44:13.880Z,20.93
2018-05-29T18:46:43.066Z,20.92
2018-05-29T18:49:11.627Z,20.83
2018-05-29T18:51:39.962Z,20.70
2018-05-29T18:54:08.384Z,20.67
2018-05-29T18:56:36.795Z,20.61
2018-05-29T18:59:05.215Z,20.64
2018-05-29T19:01:34.421Z,20.73
2018-05-29T19:04:02.864Z,20.73
2018-05-29T19:06:31.287Z,20.85
2018-05-29T19:08:59.727Z,20.82
2018-05-29T19:11:28.164Z,20.72
2018-05-29T19:13:56.650Z,20.74
2018-05-29T19:16:25.985Z,20.61
2018-05-29T19:18:54.457Z,20.74
2018-05-29T19:21:22.878Z,20.80
2018-05-29T19:23:51.297Z,20.85
2018-05-29T19:26:19.903Z,20.86
2018-05-29T19:28:48.408Z,20.81
2018-05-29T19:31:16.875Z,20.57
2018-05-29T19:33:45.298Z,20.52
2018-05-29T19:36:15.305Z,20.51
2018-05-29T19:38:44.529Z,20.43
2018-05-29T19:41:12.998Z,20.39
2018-05-29T19:43:41.419Z,20.47
2018-05-29T19:46:10.668Z,20.38
2018-05-29T19:48:39.094Z,20.28
2018-05-29T19:51:08.364Z,20.44
2018-05-29T19:53:36.902Z,20.45
2018-05-29T19:56:06.059Z,20.39
2018-05-29T19:58:34.514Z,20.40
2018-05-29T20:01:02.935Z,20.38
2018-05-29T20:03:32.170Z,20.28
2018-05-29T20:06:01.381Z,20.22
2018-05-29T20:08:29.786Z,20.31
2018-05-29T20:10:58.180Z,20.15
2018-05-29T20:13:26.664Z,20.03
2018-05-29T20:15:55.121Z,19.99
2018-05-29T20:18:24.335Z,20.01
2018-05-29T20:20:52.807Z,19.99
2018-05-29T20:23:21.236Z,20.01
2018-05-29T20:25:49.664Z,20.11
2018-05-29T20:28:18.845Z,19.96
2018-05-29T20:30:47.245Z,19.85
2018-05-29T20:33:16.509Z,19.84
2018-05-29T20:35:44.918Z,19.92
2018-05-29T20:38:13.341Z,19.98
2018-05-29T20:40:41.809Z,20.05
2018-05-29T20:43:10.990Z,19.99
2018-05-29T20:45:39.387Z,19.89
2018-05-29T20:48:08.579Z,19.81
2018-05-29T20:50:37.003Z,19.71
2018-05-29T20:53:05.424Z,19.75
2018-05-29T20:55:33.894Z,19.94
2018-05-29T20:58:02.282Z,20.12
2018-05-29T21:00:30.677Z,19.99
2018-05-29T21:02:59.067Z,19.97
2018-05-29T21:05:27.608Z,19.92
2018-05-29T21:07:56.009Z,19.96
2018-05-29T21:10:24.394Z,19.96
2018-05-29T21:12:52.813Z,19.97
2018-05-29T21:15:21.209Z,20.03
2018-05-29T21:17:50.389Z,19.99
2018-05-29T21:20:18.781Z,19.98
2018-05-29T21:22:47.195Z,19.99
2018-05-29T21:25:15.604Z,19.91
2018-05-29T21:27:44.814Z,19.84
2018-05-29T21:30:13.188Z,19.92
2018-05-29T21:32:41.590Z,20.02
2018-05-29T21:35:10.030Z,20.10
2018-05-29T21:37:38.389Z,20.02
2018-05-29T21:40:06.808Z,19.93
2018-05-29T21:42:35.219Z,19.85
2018-05-29T21:45:03.609Z,19.77
2018-05-29T21:47:31.998Z,19.70
2018-05-29T21:50:00.406Z,19.66
2018-05-29T21:52:28.784Z,19.59
2018-05-29T21:54:57.225Z,19.59
2018-05-29T21:57:25.640Z,19.59
2018-05-29T21:59:54.080Z,19.51
2018-05-29T22:02:22.462Z,19.49
2018-05-29T22:04:50.859Z,19.38
2018-05-29T22:07:19.263Z,19.35
2018-05-29T22:09:47.649Z,19.39
2018-05-29T22:12:16.031Z,19.39
2018-05-29T22:14:44.445Z,19.40
2018-05-29T22:17:16.074Z,19.51
2018-05-29T22:19:44.491Z,19.53
2018-05-29T22:22:13.684Z,19.51
2018-05-29T22:24:42.107Z,19.46
2018-05-29T22:27:10.556Z,19.47
2018-05-29T22:29:38.918Z,19.54
2018-05-29T22:32:07.353Z,19.66
2018-05-29T22:34:35.993Z,19.77
2018-05-29T22:37:04.455Z,19.85
2018-05-29T22:39:32.883Z,19.89
2018-05-29T22:42:01.283Z,19.83
2018-05-29T22:44:30.441Z,19.85
2018-05-29T22:46:58.844Z,19.91
2018-05-29T22:49:27.241Z,19.83
2018-05-29T22:51:56.453Z,19.70
2018-05-29T22:54:25.590Z,19.58
2018-05-29T22:56:53.974Z,19.47
2018-05-29T22:59:22.362Z,19.46
2018-05-29T23:01:50.745Z,19.43
2018-05-29T23:04:19.143Z,19.43
2018-05-29T23:06:47.562Z,19.46
2018-05-29T23:09:16.739Z,19.51
2018-05-29T23:11:45.134Z,19.60
2018-05-29T23:14:13.537Z,19.48
2018-05-29T23:16:42.737Z,19.45
2018-05-29T23:19:11.885Z,19.38
2018-05-29T23:21:40.261Z,19.32
2018-05-29T23:24:08.653Z,19.37
2018-05-29T23:26:37.058Z,19.46
2018-05-29T23:29:05.491Z,19.42
2018-05-29T23:31:33.863Z,19.40
2018-05-29T23:34:02.238Z,19.47
2018-05-29T23:36:31.400Z,19.49
2018-05-29T23:38:59.903Z,19.50
2018-05-29T23:41:28.409Z,19.42
2018-05-29T23:43:57.586Z,19.37
2018-05-29T23:46:25.971Z,19.37
2018-05-29T23:48:54.358Z,19.37
2018-05-29T23:51:22.757Z,19.30
2018-05-29T23:53:51.902Z,19.23
2018-05-29T23:56:20.297Z,19.13
2018-05-29T23:58:49.474Z,19.04
